createdAt,value
2019-02-05T00:02:16.956Z,101366.58
2019-02-05T00:04:50.289Z,101364.08
2019-02-05T00:07:23.735Z,101364.08
2019-02-05T00:09:57.156Z,101361.20
2019-02-05T00:12:30.519Z,101361.20
2019-02-05T00:15:05.813Z,101364.56
2019-02-05T00:17:39.238Z,101363.72
2019-02-05T00:20:13.005Z,101363.72
2019-02-05T00:22:46.433Z,101359.94
2019-02-05T00:25:19.855Z,101364.95
2019-02-05T00:27:53.299Z,101364.95
2019-02-05T00:30:26.708Z,101370.29
2019-02-05T00:33:00.126Z,101373.87
2019-02-05T00:35:33.531Z,101371.30
2019-02-05T00:38:06.963Z,101360.95
2019-02-05T00:40:40.388Z,101370.88
2019-02-05T00:43:13.791Z,101370.88
2019-02-05T00:45:47.243Z,101366.58
2019-02-05T00:48:20.596Z,101363.23
2019-02-05T00:50:54.023Z,101373.77
2019-02-05T00:53:27.694Z,101369.51
2019-02-05T00:56:01.016Z,101384.51
2019-02-05T00:58:34.383Z,101384.51
2019-02-05T01:01:07.984Z,101388.92
2019-02-05T01:03:41.404Z,101390.52
2019-02-05T01:06:14.717Z,101393.94
2019-02-05T01:08:48.133Z,101396.38
2019-02-05T01:11:21.478Z,101404.00
2019-02-05T01:13:54.820Z,101409.75
2019-02-05T01:16:28.336Z,101409.75
2019-02-05T01:19:01.680Z,101419.87
2019-02-05T01:21:35.081Z,101421.14
2019-02-05T01:24:08.508Z,101415.91
2019-02-05T01:26:41.837Z,101415.91
2019-02-05T01:29:15.180Z,101406.30
2019-02-05T01:31:48.506Z,101407.23
2019-02-05T01:34:21.856Z,101407.23
2019-02-05T01:36:55.253Z,101415.77
2019-02-05T01:39:28.612Z,101415.77
2019-02-05T01:42:01.936Z,101415.98
2019-02-05T01:44:35.345Z,101432.16
2019-02-05T01:47:08.677Z,101429.25
2019-02-05T01:49:42.418Z,101427.47
2019-02-05T01:52:15.911Z,101427.94
2019-02-05T01:54:49.434Z,101421.05
2019-02-05T01:57:22.916Z,101426.13
2019-02-05T01:59:56.318Z,101425.20
2019-02-05T02:02:29.752Z,101420.92
2019-02-05T02:05:03.729Z,101426.11
2019-02-05T02:07:37.159Z,101434.23
2019-02-05T02:10:19.141Z,101424.47
2019-02-05T02:12:52.619Z,101422.34
2019-02-05T02:15:26.025Z,101418.69
2019-02-05T02:17:59.448Z,101416.91
2019-02-05T02:20:32.839Z,101416.91
2019-02-05T02:23:06.338Z,101412.31
2019-02-05T02:25:39.687Z,101415.73
2019-02-05T02:28:13.101Z,101412.31
2019-02-05T02:30:46.425Z,101419.91
2019-02-05T02:33:20.309Z,101417.38
2019-02-05T02:35:53.633Z,101405.50
2019-02-05T02:38:27.089Z,101409.31
2019-02-05T02:41:00.423Z,101388.69
2019-02-05T02:43:33.796Z,101394.39
2019-02-05T02:46:07.251Z,101391.38
2019-02-05T02:48:40.624Z,101396.91
2019-02-05T02:51:13.977Z,101394.81
2019-02-05T02:53:47.399Z,101388.43
2019-02-05T02:56:21.001Z,101401.19
2019-02-05T02:58:54.434Z,101394.14
2019-02-05T03:01:27.835Z,101406.77
2019-02-05T03:04:01.183Z,101399.68
2019-02-05T03:06:34.600Z,101409.39
2019-02-05T03:09:09.758Z,101415.69
2019-02-05T03:11:43.156Z,101424.22
2019-02-05T03:14:16.506Z,101419.16
2019-02-05T03:16:49.843Z,101414.16
2019-02-05T03:19:23.282Z,101417.04
2019-02-05T03:21:56.676Z,101414.62
2019-02-05T03:24:30.064Z,101418.05
2019-02-05T03:27:03.593Z,101416.27
2019-02-05T03:29:36.936Z,101414.25
2019-02-05T03:32:10.356Z,101422.45
2019-02-05T03:34:43.678Z,101413.83
2019-02-05T03:37:17.061Z,101414.20
2019-02-05T03:39:50.451Z,101417.20
2019-02-05T03:42:23.803Z,101417.58
2019-02-05T03:44:57.553Z,101422.61
2019-02-05T03:47:31.002Z,101410.83
2019-02-05T03:50:05.570Z,101414.67
2019-02-05T03:52:42.236Z,101407.10
2019-02-05T03:55:36.741Z,101409.27
2019-02-05T03:58:15.980Z,101414.75
2019-02-05T04:00:52.489Z,101420.50
2019-02-05T04:03:29.302Z,101419.41
2019-02-05T04:06:15.000Z,101423.63
2019-02-05T04:08:57.510Z,101422.19
2019-02-05T04:12:06.139Z,101428.66
2019-02-05T04:15:09.535Z,101420.29
2019-02-05T04:17:51.781Z,101423.30
2019-02-05T04:20:43.512Z,101419.78
2019-02-05T04:23:20.055Z,101419.36
2019-02-05T04:26:11.919Z,101420.30
2019-02-05T04:28:54.733Z,101423.25
2019-02-05T04:31:53.719Z,101424.94
2019-02-05T04:34:42.516Z,101422.86
2019-02-05T04:37:38.818Z,101426.20
2019-02-05T04:40:44.027Z,101426.63
2019-02-05T04:43:29.666Z,101421.64
2019-02-05T04:46:09.240Z,101429.33
2019-02-05T04:49:14.843Z,101428.95
2019-02-05T04:52:03.830Z,101430.18
2019-02-05T04:55:08.453Z,101428.02
2019-02-05T04:58:13.767Z,101419.14
2019-02-05T05:01:25.176Z,101429.29
2019-02-05T05:04:10.778Z,101430.95
2019-02-05T05:06:53.373Z,101435.12
2019-02-05T05:09:32.825Z,101429.63
2019-02-05T05:12:06.260Z,101429.20
2019-02-05T05:14:39.685Z,101430.89
2019-02-05T05:17:13.113Z,101435.21
2019-02-05T05:19:46.960Z,101430.52
2019-02-05T05:22:20.412Z,101433.48
2019-02-05T05:24:54.254Z,101427.48
2019-02-05T05:27:28.024Z,101433.05
2019-02-05T05:30:01.628Z,101435.67
2019-02-05T05:32:35.033Z,101439.86
2019-02-05T05:35:09.836Z,101440.74
2019-02-05T05:37:43.165Z,101450.85
2019-02-05T05:40:16.701Z,101452.20
2019-02-05T05:42:50.061Z,101451.31
2019-02-05T05:45:23.521Z,101453.05
2019-02-05T05:47:56.851Z,101448.39
2019-02-05T05:50:30.219Z,101453.52
2019-02-05T05:53:04.140Z,101459.85
2019-02-05T05:55:37.519Z,101467.21
2019-02-05T05:58:21.900Z,101458.84
2019-02-05T06:00:46.067Z,101455.55
2019-02-05T06:03:19.847Z,101468.56
2019-02-05T06:05:53.273Z,101465.64
2019-02-05T06:08:26.600Z,101465.14
2019-02-05T06:11:00.011Z,101469.50
2019-02-05T06:13:33.407Z,101477.10
2019-02-05T06:16:06.838Z,101480.86
2019-02-05T06:18:40.242Z,101471.90
2019-02-05T06:21:13.894Z,101485.56
2019-02-05T06:23:47.258Z,101478.88
2019-02-05T06:26:20.693Z,101484.92
2019-02-05T06:28:54.099Z,101482.94
2019-02-05T06:31:27.494Z,101488.09
2019-02-05T06:34:00.958Z,101500.78
2019-02-05T06:36:34.344Z,101504.08
2019-02-05T06:39:08.347Z,101511.39
2019-02-05T06:41:41.798Z,101510.98
2019-02-05T06:44:15.218Z,101516.76
2019-02-05T06:46:48.610Z,101518.58
2019-02-05T06:49:21.971Z,101524.97
2019-02-05T06:51:55.325Z,101523.33
2019-02-05T06:54:28.776Z,101526.32
2019-02-05T06:57:02.100Z,101526.83
2019-02-05T06:59:35.454Z,101535.80
2019-02-05T07:02:09.600Z,101545.48
2019-02-05T07:04:42.986Z,101545.53
2019-02-05T07:07:16.315Z,101545.95
2019-02-05T07:09:49.673Z,101547.55
2019-02-05T07:12:23.090Z,101550.98
2019-02-05T07:14:56.520Z,101546.46
2019-02-05T07:17:29.846Z,101555.26
2019-02-05T07:20:03.751Z,101557.84
2019-02-05T07:22:37.178Z,101561.59
2019-02-05T07:25:13.778Z,101567.06
2019-02-05T07:27:47.246Z,101573.31
2019-02-05T07:30:25.655Z,101580.16
2019-02-05T07:32:59.057Z,101569.22
2019-02-05T07:35:32.495Z,101572.59
2019-02-05T07:38:06.264Z,101575.17
2019-02-05T07:40:39.685Z,101576.83
2019-02-05T07:43:13.156Z,101573.07
2019-02-05T07:45:46.517Z,101579.92
2019-02-05T07:48:19.911Z,101579.11
2019-02-05T07:50:53.543Z,101583.35
2019-02-05T07:53:26.878Z,101597.27
2019-02-05T07:56:00.232Z,101585.00
2019-02-05T07:58:33.622Z,101591.81
2019-02-05T08:01:07.068Z,101596.17
2019-02-05T08:03:40.534Z,101596.25
2019-02-05T08:06:13.990Z,101602.22
2019-02-05T08:08:47.457Z,101605.69
2019-02-05T08:11:20.984Z,101607.38
2019-02-05T08:13:54.388Z,101614.06
2019-02-05T08:16:27.748Z,101614.06
2019-02-05T08:19:01.081Z,101627.69
2019-02-05T08:21:34.506Z,101630.23
2019-02-05T08:24:07.832Z,101628.45
2019-02-05T08:26:41.184Z,101615.68
2019-02-05T08:29:21.694Z,101629.77
2019-02-05T08:31:50.160Z,101628.66
2019-02-05T08:34:23.522Z,101627.44
2019-02-05T08:36:56.882Z,101629.63
2019-02-05T08:39:30.209Z,101629.63
2019-02-05T08:42:03.569Z,101626.54
2019-02-05T08:44:36.960Z,101623.08
2019-02-05T08:47:10.340Z,101623.08
2019-02-05T08:49:43.682Z,101632.00
2019-02-05T08:52:17.055Z,101625.77
2019-02-05T08:54:50.403Z,101625.77
2019-02-05T08:57:23.754Z,101640.71
2019-02-05T08:59:57.162Z,101628.85
2019-02-05T09:02:30.597Z,101633.82
2019-02-05T09:05:05.389Z,101631.28
2019-02-05T09:07:38.825Z,101645.21
2019-02-05T09:10:29.878Z,101645.21
2019-02-05T09:13:03.320Z,101648.17
2019-02-05T09:15:37.184Z,101651.22
2019-02-05T09:18:10.677Z,101649.59
2019-02-05T09:20:43.996Z,101638.70
2019-02-05T09:23:17.441Z,101633.55
2019-02-05T09:25:50.826Z,101624.66
2019-02-05T09:28:24.183Z,101614.48
2019-02-05T09:30:57.511Z,101631.54
2019-02-05T09:33:30.875Z,101634.61
2019-02-05T09:36:04.343Z,101642.20
2019-02-05T09:38:37.712Z,101642.55
2019-02-05T09:41:11.093Z,101640.96
2019-02-05T09:43:44.641Z,101638.80
2019-02-05T09:46:18.059Z,101641.80
2019-02-05T09:48:51.387Z,101641.42
2019-02-05T09:51:25.000Z,101646.18
2019-02-05T09:53:58.416Z,101645.69
2019-02-05T09:56:31.780Z,101647.38
2019-02-05T09:59:05.288Z,101654.30
2019-02-05T10:01:38.795Z,101649.53
2019-02-05T10:04:12.527Z,101647.84
2019-02-05T10:06:45.988Z,101655.50
2019-02-05T10:09:19.384Z,101644.45
2019-02-05T10:11:52.734Z,101650.31
2019-02-05T10:14:26.075Z,101655.92
2019-02-05T10:16:59.826Z,101650.94
2019-02-05T10:19:33.226Z,101663.65
2019-02-05T10:22:06.591Z,101663.52
2019-02-05T10:24:40.047Z,101662.38
2019-02-05T10:27:13.487Z,101669.61
2019-02-05T10:29:57.809Z,101675.06
2019-02-05T10:32:21.899Z,101685.02
2019-02-05T10:34:55.237Z,101692.25
2019-02-05T10:37:28.618Z,101696.56
2019-02-05T10:40:02.307Z,101695.65
2019-02-05T10:42:35.697Z,101701.58
2019-02-05T10:45:12.114Z,101699.88
2019-02-05T10:47:45.544Z,101699.00
2019-02-05T10:50:19.712Z,101700.66
2019-02-05T10:52:53.246Z,101704.97
2019-02-05T10:55:26.612Z,101705.42
2019-02-05T10:57:59.970Z,101704.62
2019-02-05T11:00:34.023Z,101701.72
2019-02-05T11:03:08.604Z,101692.50
2019-02-05T11:05:42.005Z,101700.55
2019-02-05T11:08:15.438Z,101699.74
2019-02-05T11:10:48.759Z,101708.54
2019-02-05T11:13:22.199Z,101707.41
2019-02-05T11:15:55.971Z,101701.89
2019-02-05T11:18:29.505Z,101701.30
2019-02-05T11:21:04.388Z,101698.44
2019-02-05T11:23:38.127Z,101695.92
2019-02-05T11:26:11.811Z,101693.35
2019-02-05T11:28:45.230Z,101695.99
2019-02-05T11:31:18.599Z,101690.87
2019-02-05T11:33:51.995Z,101697.09
2019-02-05T11:36:25.356Z,101686.14
2019-02-05T11:38:58.792Z,101692.11
2019-02-05T11:41:32.125Z,101693.02
2019-02-05T11:44:05.538Z,101689.72
2019-02-05T11:46:38.935Z,101691.48
2019-02-05T11:49:12.296Z,101692.70
2019-02-05T11:51:46.072Z,101690.38
2019-02-05T11:54:19.518Z,101691.69
2019-02-05T11:56:52.850Z,101695.79
2019-02-05T11:59:26.282Z,101692.92
2019-02-05T12:01:59.682Z,101693.88
2019-02-05T12:04:33.328Z,101698.59
2019-02-05T12:07:06.741Z,101686.70
2019-02-05T12:09:40.377Z,101692.99
2019-02-05T12:12:13.703Z,101691.78
2019-02-05T12:14:50.214Z,101691.02
2019-02-05T12:17:22.185Z,101698.56
2019-02-05T12:19:55.826Z,101693.97
2019-02-05T12:22:29.242Z,101699.87
2019-02-05T12:25:02.689Z,101701.56
2019-02-05T12:27:36.123Z,101699.05
2019-02-05T12:30:21.218Z,101697.81
2019-02-05T12:32:54.728Z,101697.81
2019-02-05T12:35:28.350Z,101694.81
2019-02-05T12:38:01.864Z,101696.88
2019-02-05T12:40:35.631Z,101692.14
2019-02-05T12:43:09.066Z,101689.17
2019-02-05T12:45:42.486Z,101688.03
2019-02-05T12:48:15.915Z,101680.37
2019-02-05T12:50:49.703Z,101677.37
2019-02-05T12:53:23.240Z,101674.03
2019-02-05T12:55:56.634Z,101683.88
2019-02-05T12:58:30.057Z,101688.11
2019-02-05T13:01:03.523Z,101682.55
2019-02-05T13:03:36.927Z,101680.42
2019-02-05T13:06:10.348Z,101690.20
2019-02-05T13:08:43.820Z,101685.52
2019-02-05T13:11:17.267Z,101688.42
2019-02-05T13:13:50.968Z,101689.23
2019-02-05T13:16:24.374Z,101694.78
2019-02-05T13:18:57.842Z,101696.93
2019-02-05T13:21:31.164Z,101700.83
2019-02-05T13:24:04.862Z,101699.05
2019-02-05T13:26:38.207Z,101698.17
2019-02-05T13:29:11.555Z,101698.59
2019-02-05T13:31:44.883Z,101702.84
2019-02-05T13:34:18.249Z,101696.80
2019-02-05T13:36:51.575Z,101698.56
2019-02-05T13:39:25.069Z,101701.17
2019-02-05T13:41:58.503Z,101702.02
2019-02-05T13:44:31.867Z,101701.11
2019-02-05T13:47:05.362Z,101713.80
2019-02-05T13:49:38.816Z,101717.83
2019-02-05T13:52:12.218Z,101718.19
2019-02-05T13:54:45.583Z,101718.22
2019-02-05T13:57:18.986Z,101716.98
2019-02-05T13:59:52.340Z,101726.80
2019-02-05T14:02:25.681Z,101733.16
2019-02-05T14:04:59.105Z,101729.36
2019-02-05T14:07:32.438Z,101735.61
2019-02-05T14:10:12.102Z,101735.55
2019-02-05T14:12:45.514Z,101739.81
2019-02-05T14:15:24.376Z,101738.16
2019-02-05T14:17:57.864Z,101742.00
2019-02-05T14:20:31.736Z,101740.39
2019-02-05T14:23:05.292Z,101734.17
2019-02-05T14:25:38.656Z,101740.63
2019-02-05T14:28:11.981Z,101741.03
2019-02-05T14:30:50.921Z,101745.23
2019-02-05T14:33:24.305Z,101746.54
2019-02-05T14:35:57.736Z,101745.81
2019-02-05T14:38:31.136Z,101745.39
2019-02-05T14:41:04.871Z,101744.12
2019-02-05T14:43:38.195Z,101742.42
2019-02-05T14:46:13.167Z,101746.67
2019-02-05T14:48:46.768Z,101743.27
2019-02-05T14:51:20.092Z,101745.45
2019-02-05T14:53:53.518Z,101745.48
2019-02-05T14:56:27.278Z,101745.84
2019-02-05T14:59:00.653Z,101747.15
2019-02-05T15:01:42.773Z,101746.75
2019-02-05T15:04:09.685Z,101746.73
2019-02-05T15:06:43.020Z,101744.19
2019-02-05T15:09:16.470Z,101739.94
2019-02-05T15:11:49.793Z,101743.78
2019-02-05T15:14:23.225Z,101737.91
2019-02-05T15:16:56.658Z,101738.21
2019-02-05T15:19:30.142Z,101734.88
2019-02-05T15:22:03.550Z,101740.76
2019-02-05T15:24:38.926Z,101735.70
2019-02-05T15:27:12.031Z,101735.61
2019-02-05T15:29:45.403Z,101736.45
2019-02-05T15:32:20.366Z,101733.52
2019-02-05T15:34:53.829Z,101732.27
2019-02-05T15:37:27.376Z,101730.09
2019-02-05T15:40:00.803Z,101730.00
2019-02-05T15:42:34.122Z,101730.00
2019-02-05T15:45:09.528Z,101729.22
2019-02-05T15:47:43.252Z,101731.37
2019-02-05T15:50:16.948Z,101733.78
2019-02-05T15:52:50.332Z,101737.17
2019-02-05T15:55:23.823Z,101737.99
2019-02-05T15:57:57.224Z,101732.41
2019-02-05T16:00:30.690Z,101746.40
2019-02-05T16:03:04.880Z,101744.98
2019-02-05T16:05:38.412Z,101742.86
2019-02-05T16:08:11.784Z,101746.64
2019-02-05T16:10:45.499Z,101745.30
2019-02-05T16:13:18.823Z,101741.83
2019-02-05T16:15:52.175Z,101742.67
2019-02-05T16:18:25.579Z,101746.23
2019-02-05T16:20:59.006Z,101745.31
2019-02-05T16:23:32.345Z,101750.81
2019-02-05T16:26:05.855Z,101739.16
2019-02-05T16:28:39.323Z,101751.95
2019-02-05T16:31:12.773Z,101776.78
2019-02-05T16:33:46.175Z,101753.73
2019-02-05T16:36:19.571Z,101741.68
2019-02-05T16:38:52.965Z,101743.84
2019-02-05T16:41:26.396Z,101750.84
2019-02-05T16:43:59.733Z,101750.84
2019-02-05T16:46:33.131Z,101749.24
2019-02-05T16:49:06.518Z,101759.03
2019-02-05T16:51:39.942Z,101757.22
2019-02-05T16:54:13.407Z,101757.22
2019-02-05T16:56:47.040Z,101759.77
2019-02-05T16:59:20.380Z,101762.24
2019-02-05T17:01:53.779Z,101764.31
2019-02-05T17:04:27.173Z,101766.41
2019-02-05T17:07:00.591Z,101763.45
2019-02-05T17:09:33.988Z,101760.27
2019-02-05T17:12:07.418Z,101768.61
2019-02-05T17:14:40.775Z,101762.25
2019-02-05T17:17:14.206Z,101767.81
2019-02-05T17:19:47.832Z,101770.15
2019-02-05T17:22:21.270Z,101770.87
2019-02-05T17:24:54.596Z,101777.47
2019-02-05T17:27:28.035Z,101782.63
2019-02-05T17:30:01.875Z,101781.70
2019-02-05T17:32:40.242Z,101781.69
2019-02-05T17:35:10.746Z,101775.17
2019-02-05T17:37:44.209Z,101781.02
2019-02-05T17:40:19.601Z,101786.44
2019-02-05T17:42:54.212Z,101786.52
2019-02-05T17:45:30.877Z,101788.91
2019-02-05T17:48:07.469Z,101790.55
2019-02-05T17:50:41.007Z,101796.17
2019-02-05T17:53:14.440Z,101792.94
2019-02-05T17:55:47.851Z,101792.06
2019-02-05T17:58:21.248Z,101799.27
2019-02-05T18:00:56.285Z,101797.87
2019-02-05T18:03:29.739Z,101805.61
2019-02-05T18:06:03.239Z,101810.24
2019-02-05T18:08:36.612Z,101800.39
2019-02-05T18:11:10.035Z,101808.77
2019-02-05T18:13:43.848Z,101816.44
2019-02-05T18:16:17.339Z,101820.74
2019-02-05T18:18:50.691Z,101813.99
2019-02-05T18:21:24.088Z,101810.67
2019-02-05T18:23:57.463Z,101811.51
2019-02-05T18:26:30.859Z,101818.21
2019-02-05T18:29:04.284Z,101816.22
2019-02-05T18:31:37.643Z,101814.17
2019-02-05T18:34:10.961Z,101814.97
2019-02-05T18:36:44.704Z,101817.58
2019-02-05T18:39:18.039Z,101820.09
2019-02-05T18:41:51.475Z,101819.26
2019-02-05T18:44:24.927Z,101819.28
2019-02-05T18:46:58.289Z,101830.25
2019-02-05T18:49:31.630Z,101823.91
2019-02-05T18:52:05.111Z,101830.59
2019-02-05T18:54:38.512Z,101831.08
2019-02-05T18:57:12.123Z,101831.50
2019-02-05T18:59:45.916Z,101831.50
2019-02-05T19:02:19.420Z,101839.12
2019-02-05T19:04:52.823Z,101834.97
2019-02-05T19:07:26.348Z,101832.91
2019-02-05T19:09:59.737Z,101827.91
2019-02-05T19:12:33.102Z,101832.14
2019-02-05T19:15:09.599Z,101826.16
2019-02-05T19:17:43.095Z,101829.59
2019-02-05T19:20:18.169Z,101829.17
2019-02-05T19:22:51.682Z,101825.26
2019-02-05T19:25:27.091Z,101827.41
2019-02-05T19:28:00.515Z,101826.17
2019-02-05T19:30:35.483Z,101816.87
2019-02-05T19:33:08.907Z,101821.98
2019-02-05T19:35:42.335Z,101827.97
2019-02-05T19:38:15.864Z,101821.98
2019-02-05T19:40:57.206Z,101818.97
2019-02-05T19:43:24.497Z,101822.30
2019-02-05T19:46:08.549Z,101822.30
2019-02-05T19:48:58.414Z,101825.17
2019-02-05T19:51:31.693Z,101825.24
2019-02-05T19:54:05.268Z,101827.34
2019-02-05T19:56:38.663Z,101831.91
2019-02-05T19:59:12.016Z,101826.87
2019-02-05T20:01:45.412Z,101828.97
2019-02-05T20:04:18.836Z,101832.21
2019-02-05T20:06:52.303Z,101826.72
2019-02-05T20:09:25.749Z,101828.34
2019-02-05T20:11:59.145Z,101832.21
2019-02-05T20:14:32.664Z,101830.08
2019-02-05T20:17:06.434Z,101830.58
2019-02-05T20:19:39.802Z,101826.28
2019-02-05T20:22:13.199Z,101833.05
2019-02-05T20:24:46.584Z,101835.80
2019-02-05T20:27:19.905Z,101833.24
2019-02-05T20:29:53.759Z,101834.94
2019-02-05T20:32:28.170Z,101830.66
2019-02-05T20:35:01.762Z,101833.10
2019-02-05T20:37:35.173Z,101833.02
2019-02-05T20:40:14.647Z,101838.86
2019-02-05T20:42:48.120Z,101850.27
2019-02-05T20:45:21.821Z,101841.74
2019-02-05T20:47:56.026Z,101850.13
2019-02-05T20:50:29.643Z,101846.31
2019-02-05T20:53:13.460Z,101851.02
2019-02-05T20:55:38.433Z,101846.38
2019-02-05T20:58:11.765Z,101853.06
2019-02-05T21:00:45.311Z,101861.91
2019-02-05T21:03:18.734Z,101860.59
2019-02-05T21:05:52.164Z,101861.94
2019-02-05T21:08:25.565Z,101857.98
2019-02-05T21:10:58.992Z,101857.91
2019-02-05T21:13:32.326Z,101857.58
2019-02-05T21:16:06.431Z,101854.19
2019-02-05T21:18:39.752Z,101857.21
2019-02-05T21:21:13.177Z,101864.72
2019-02-05T21:23:46.505Z,101857.55
2019-02-05T21:26:19.939Z,101866.44
2019-02-05T21:28:53.538Z,101862.19
2019-02-05T21:31:26.911Z,101860.94
2019-02-05T21:34:02.489Z,101864.78
2019-02-05T21:36:35.471Z,101861.28
2019-02-05T21:39:09.579Z,101863.81
2019-02-05T21:41:42.976Z,101861.62
2019-02-05T21:44:16.412Z,101859.98
2019-02-05T21:46:49.835Z,101854.02
2019-02-05T21:49:23.269Z,101858.98
2019-02-05T21:51:56.882Z,101850.91
2019-02-05T21:54:30.244Z,101859.33
2019-02-05T21:57:03.711Z,101855.88
2019-02-05T21:59:37.091Z,101860.09
2019-02-05T22:02:10.500Z,101859.61
2019-02-05T22:04:44.169Z,101868.06
2019-02-05T22:07:18.166Z,101864.66
2019-02-05T22:09:51.563Z,101863.80
2019-02-05T22:12:24.961Z,101862.98
2019-02-05T22:14:58.328Z,101868.12
2019-02-05T22:17:32.030Z,101862.75
2019-02-05T22:20:11.390Z,101861.56
2019-02-05T22:22:45.363Z,101850.30
2019-02-05T22:25:24.133Z,101848.62
2019-02-05T22:27:57.548Z,101847.77
2019-02-05T22:30:36.402Z,101851.43
2019-02-05T22:33:09.878Z,101853.47
2019-02-05T22:35:43.366Z,101854.80
2019-02-05T22:38:16.697Z,101855.55
2019-02-05T22:40:50.138Z,101850.06
2019-02-05T22:43:23.857Z,101849.14
2019-02-05T22:45:57.365Z,101847.95
2019-02-05T22:48:31.010Z,101850.09
2019-02-05T22:51:04.435Z,101850.84
2019-02-05T22:53:38.210Z,101850.61
2019-02-05T22:56:11.563Z,101850.73
2019-02-05T22:58:45.072Z,101846.11
2019-02-05T23:01:27.587Z,101837.68
2019-02-05T23:04:05.607Z,101831.33
2019-02-05T23:06:43.038Z,101836.31
2019-02-05T23:09:22.655Z,101841.31
2019-02-05T23:12:01.784Z,101839.09
2019-02-05T23:14:35.246Z,101839.89
2019-02-05T23:17:09.073Z,101840.30
2019-02-05T23:19:42.470Z,101836.43
2019-02-05T23:22:15.964Z,101832.61
2019-02-05T23:24:49.416Z,101829.30
2019-02-05T23:27:22.856Z,101832.42
2019-02-05T23:29:56.190Z,101828.55
2019-02-05T23:32:29.590Z,101834.05
2019-02-05T23:35:02.997Z,101828.14
2019-02-05T23:37:36.430Z,101835.41
2019-02-05T23:40:11.986Z,101836.68
2019-02-05T23:42:45.563Z,101832.59
2019-02-05T23:45:19.010Z,101830.14
2019-02-05T23:47:52.407Z,101834.03
2019-02-05T23:50:26.214Z,101831.14
2019-02-05T23:52:59.666Z,101828.34
2019-02-05T23:55:33.089Z,101834.27
2019-02-05T23:58:06.537Z,101825.55
